Time;durP1;ratioP1;P1;durP2;ratioP2;P2;SDS_P1;SDS_P2;PMS_P1;PMS_P2;Temp;Humidity;BMP_temperature;BMP_pressure;BME280_temperature;BME280_humidity;BME280_pressure;Samples;Min_cycle;Max_cycle;Signal;HPM_P1;HPM_P2
2023/01/24 00:02:23;;;;;;;38.55;12.85;;;;;;;-148.88;100.00;78973.59;5094464;28;20389;-80
2023/01/24 00:04:49;;;;;;;32.72;12.07;;;;;;;-148.88;100.00;78967.50;5094022;28;20498;-81
2023/01/24 00:07:14;;;;;;;37.58;12.35;;;;;;;-148.88;100.00;78971.56;5095361;28;20085;-81
2023/01/24 00:09:39;;;;;;;35.05;12.48;;;;;;;-148.88;100.00;78971.56;5097121;28;20033;-83
2023/01/24 00:12:05;;;;;;;33.38;11.85;;;;;;;-148.88;100.00;78967.50;5096300;28;20458;-82
2023/01/24 00:14:30;;;;;;;31.30;11.88;;;;;;;-148.88;100.00;78963.44;5096235;28;20036;-82
2023/01/24 00:16:55;;;;;;;35.28;13.27;;;;;;;-148.88;100.00;78971.56;5098092;28;20035;-83
2023/01/24 00:19:21;;;;;;;33.08;12.77;;;;;;;-148.88;100.00;78963.44;5097006;28;20083;-82
2023/01/24 00:21:46;;;;;;;34.38;12.23;;;;;;;-148.88;100.00;78971.56;5096731;28;20028;-83
2023/01/24 00:24:11;;;;;;;29.83;11.40;;;;;;;-148.88;100.00;78967.50;5097364;28;20020;-83
2023/01/24 00:26:37;;;;;;;34.92;12.38;;;;;;;-148.88;100.00;78963.44;5097746;28;20492;-83
2023/01/24 00:29:02;;;;;;;28.75;13.20;;;;;;;-148.88;100.00;78959.38;5097281;28;20024;-84
2023/01/24 00:31:27;;;;;;;30.05;10.93;;;;;;;-148.88;100.00;78967.50;5099142;28;20059;-83
2023/01/24 00:33:53;;;;;;;37.97;12.43;;;;;;;-148.88;100.00;78967.50;5098682;28;20053;-81
2023/01/24 00:36:18;;;;;;;29.98;12.30;;;;;;;-148.88;100.00;78967.50;5094902;28;20105;-83
2023/01/24 00:38:43;;;;;;;36.67;14.05;;;;;;;-148.88;100.00;78959.38;5094645;28;20020;-81
2023/01/24 00:41:09;;;;;;;28.48;11.07;;;;;;;-148.88;100.00;78967.50;5094233;28;20055;-82
2023/01/24 00:43:34;;;;;;;28.08;11.00;;;;;;;-148.88;100.00;78959.38;5093952;28;20392;-82
2023/01/24 00:46:00;;;;;;;32.78;11.63;;;;;;;-148.88;100.00;78959.38;5097369;28;20028;-83
2023/01/24 00:48:25;;;;;;;39.22;12.82;;;;;;;-148.88;100.00;78959.38;5099187;28;20020;-83
2023/01/24 00:50:51;;;;;;;26.77;12.15;;;;;;;-148.88;100.00;78959.38;5099870;28;20041;-82
2023/01/24 00:53:16;;;;;;;32.67;12.93;;;;;;;-148.88;100.00;78957.34;5099728;28;20028;-83
2023/01/24 00:55:43;;;;;;;31.23;12.35;;;;;;;-148.88;100.00;78951.25;5100306;28;20111;-82
2023/01/24 00:58:09;;;;;;;30.00;12.27;;;;;;;-148.88;100.00;78951.25;5099493;28;20016;-82
2023/01/24 01:00:36;;;;;;;30.15;12.27;;;;;;;-148.88;100.00;78955.31;5100829;28;20119;-84
2023/01/24 01:03:02;;;;;;;30.40;11.07;;;;;;;-148.88;100.00;78959.38;5101069;28;20026;-83
2023/01/24 01:05:27;;;;;;;28.20;11.25;;;;;;;-148.88;100.00;78959.38;5100474;28;20024;-83
2023/01/24 01:07:53;;;;;;;23.70;10.38;;;;;;;-148.88;100.00;78959.38;5103475;28;20080;-83
2023/01/24 01:10:18;;;;;;;29.27;11.18;;;;;;;-148.88;100.00;78959.38;5100561;28;20012;-82
2023/01/24 01:12:43;;;;;;;23.27;10.25;;;;;;;-148.88;100.00;78965.47;5098296;28;20085;-81
2023/01/24 01:15:09;;;;;;;29.80;10.23;;;;;;;-148.88;100.00;78963.44;5098777;28;20028;-81
2023/01/24 01:17:34;;;;;;;25.83;9.40;;;;;;;-148.88;100.00;78953.28;5096955;28;20027;-81
2023/01/24 01:20:00;;;;;;;24.00;9.90;;;;;;;-148.88;100.00;78959.38;5097809;28;20024;-83
2023/01/24 01:22:25;;;;;;;25.85;10.93;;;;;;;-148.88;100.00;78961.41;5099814;28;20105;-83
2023/01/24 01:24:50;;;;;;;25.20;9.93;;;;;;;-148.88;100.00;78959.38;5101399;28;20046;-83
2023/01/24 01:27:16;;;;;;;26.67;10.40;;;;;;;-148.88;100.00;78961.41;5099836;28;20106;-83
2023/01/24 01:29:41;;;;;;;23.23;9.32;;;;;;;-148.88;100.00;78967.50;5100235;28;20040;-83
2023/01/24 01:32:06;;;;;;;22.10;8.73;;;;;;;-148.88;100.00;78971.56;5100559;28;20028;-83
2023/01/24 01:34:31;;;;;;;25.70;9.20;;;;;;;-148.88;100.00;78963.44;5101263;28;20024;-84
2023/01/24 01:36:57;;;;;;;21.88;8.85;;;;;;;-148.88;100.00;78965.47;5099214;28;20111;-81
2023/01/24 01:39:23;;;;;;;17.45;9.15;;;;;;;-148.88;100.00;78961.41;5096602;28;20051;-81
2023/01/24 01:41:48;;;;;;;22.83;9.80;;;;;;;-148.88;100.00;78967.50;5095786;28;20392;-81
2023/01/24 01:44:41;;;;;;;22.05;10.05;;;;;;;-148.88;100.00;78963.44;5096845;28;20385;-81
2023/01/24 01:47:30;;;;;;;26.92;9.93;;;;;;;-148.88;100.00;78963.44;5096292;28;20038;-81
2023/01/24 01:50:01;;;;;;;21.42;9.45;;;;;;;-148.88;100.00;78959.38;5096232;28;20095;-81
2023/01/24 01:52:30;;;;;;;20.50;8.25;;;;;;;-148.88;100.00;78963.44;5094941;28;20032;-81
2023/01/24 01:55:00;;;;;;;19.13;7.68;;;;;;;-148.88;100.00;78963.44;5096184;28;20051;-81
2023/01/24 01:57:29;;;;;;;21.27;8.07;;;;;;;-148.88;100.00;78959.38;5096246;28;20028;-84
2023/01/24 02:00:15;;;;;;;20.77;8.77;;;;;;;-148.88;100.00;78949.22;5099065;28;20111;-84
2023/01/24 02:02:48;;;;;;;19.52;7.35;;;;;;;-148.88;100.00;78945.13;5099303;28;20024;-84
2023/01/24 02:05:18;;;;;;;21.38;8.45;;;;;;;-148.88;100.00;78943.09;5098620;28;20035;-84
2023/01/24 02:07:49;;;;;;;18.40;8.55;;;;;;;-148.88;100.00;78943.09;5100387;28;20522;-84
2023/01/24 02:10:17;;;;;;;20.38;8.82;;;;;;;-148.88;100.00;78943.09;5101815;28;20027;-82
2023/01/24 02:12:46;;;;;;;16.88;6.78;;;;;;;-148.88;100.00;78943.09;5095215;28;20028;-82
2023/01/24 02:18:00;;;;;;;19.73;8.50;;;;;;;-148.88;100.00;78934.97;5096803;28;20035;-81
2023/01/24 02:20:45;;;;;;;20.38;8.68;;;;;;;-148.88;100.00;78943.09;5094919;28;20024;-81
2023/01/24 02:24:01;;;;;;;21.98;9.40;;;;;;;-148.88;100.00;78941.06;5096333;28;20055;-81
2023/01/24 02:26:28;;;;;;;21.17;8.90;;;;;;;-148.88;100.00;78943.09;5068929;28;20086;-81
2023/01/24 02:28:59;;;;;;;18.63;7.13;;;;;;;-148.88;100.00;78947.16;5095284;28;20473;-81
2023/01/24 02:31:25;;;;;;;15.32;6.88;;;;;;;-148.88;100.00;78951.25;5094829;28;20024;-81
2023/01/24 02:33:50;;;;;;;19.60;8.50;;;;;;;-148.88;100.00;78951.25;5095707;28;20028;-83
2023/01/24 02:36:25;;;;;;;17.50;8.68;;;;;;;-148.88;100.00;78943.09;5098593;28;20024;-83
2023/01/24 02:39:05;;;;;;;15.10;7.40;;;;;;;-148.88;100.00;78953.28;5099548;28;20024;-84
2023/01/24 02:41:42;;;;;;;16.50;6.82;;;;;;;-148.88;100.00;78949.22;5100243;28;20115;-83
2023/01/24 02:44:12;;;;;;;13.38;5.57;;;;;;;-148.88;100.00;78953.28;5101828;28;20370;-84
2023/01/24 02:46:38;;;;;;;14.88;5.80;;;;;;;-148.88;100.00;78949.22;5096744;28;20051;-82
2023/01/24 02:49:07;;;;;;;14.07;5.72;;;;;;;-148.88;100.00;78947.16;5095335;28;20058;-81
2023/01/24 02:54:16;;;;;;;;;;;;;;;-148.88;100.00;78943.09;5098181;28;20034;-81
2023/01/24 02:59:26;;;;;;;12.10;5.20;;;;;;;-148.88;100.00;78939.03;5097841;28;20081;-81
2023/01/24 03:01:51;;;;;;;12.95;5.47;;;;;;;-148.88;100.00;78947.16;5096420;28;20020;-81
2023/01/24 03:04:17;;;;;;;11.13;4.82;;;;;;;-148.88;100.00;78943.09;5095110;28;20397;-81
2023/01/24 03:06:45;;;;;;;9.80;4.43;;;;;;;-148.88;100.00;78939.03;5096382;28;20051;-82
2023/01/24 03:09:33;;;;;;;10.52;4.90;;;;;;;-148.88;100.00;78939.03;5094930;28;20020;-81
2023/01/24 03:36:38;;;;;;;9.68;4.60;;;;;;;-148.88;100.00;78930.91;5098973;28;20031;-83
2023/01/24 03:42:04;;;;;;;10.80;5.32;;;;;;;-148.88;100.00;78943.09;5055632;28;20124;-82
2023/01/24 03:44:31;;;;;;;9.95;4.38;;;;;;;-148.88;100.00;78943.09;5088029;28;20044;-81
2023/01/24 03:46:56;;;;;;;10.48;4.75;;;;;;;-148.88;100.00;78943.09;5098226;28;20020;-83
2023/01/24 03:52:30;;;;;;;8.38;4.47;;;;;;;-148.88;100.00;78939.03;5022154;28;20085;-83
2023/01/24 03:54:56;;;;;;;8.57;4.63;;;;;;;-148.88;100.00;78945.13;5019668;28;20095;-83
2023/01/24 03:57:22;;;;;;;10.00;4.40;;;;;;;-148.88;100.00;78945.13;5011756;28;20080;-83
2023/01/24 03:59:47;;;;;;;14.07;5.07;;;;;;;-148.88;100.00;78945.13;5012327;28;20087;-83
2023/01/24 04:02:13;;;;;;;9.45;4.30;;;;;;;-148.88;100.00;78947.16;5015547;28;20022;-83
2023/01/24 04:07:22;;;;;;;11.95;5.00;;;;;;;-148.88;100.00;78943.09;5017386;28;20028;-83
2023/01/24 04:09:47;;;;;;;10.25;4.45;;;;;;;-148.88;100.00;78943.09;5018805;28;20061;-83
2023/01/24 04:12:13;;;;;;;9.88;5.53;;;;;;;-148.88;100.00;78934.97;5017031;28;20447;-83
2023/01/24 04:14:38;;;;;;;14.50;5.13;;;;;;;-148.88;100.00;78943.09;5018335;28;20025;-83
2023/01/24 04:17:03;;;;;;;10.07;5.07;;;;;;;-148.88;100.00;78943.09;5031968;28;20040;-83
2023/01/24 04:19:28;;;;;;;11.82;4.93;;;;;;;-148.88;100.00;78947.16;5032295;28;20125;-83
2023/01/24 04:21:57;;;;;;;10.15;4.65;;;;;;;-148.88;100.00;78949.22;5034314;28;20029;-83
2023/01/24 04:24:22;;;;;;;11.02;5.65;;;;;;;-148.88;100.00;78955.31;5019890;28;20079;-83
2023/01/24 04:26:47;;;;;;;10.30;5.13;;;;;;;-148.88;100.00;78955.31;5023268;28;20025;-83
2023/01/24 04:29:13;;;;;;;10.82;5.25;;;;;;;-148.88;100.00;78955.31;5019069;28;20076;-84
2023/01/24 04:31:38;;;;;;;11.32;4.97;;;;;;;-148.88;100.00;78955.31;5021019;28;20025;-83
2023/01/24 04:34:03;;;;;;;12.52;5.22;;;;;;;-148.88;100.00;78953.28;5031914;28;20025;-82
2023/01/24 04:36:29;;;;;;;12.43;5.70;;;;;;;-148.88;100.00;78955.31;5034867;28;20045;-81
2023/01/24 04:38:55;;;;;;;8.63;4.40;;;;;;;-148.88;100.00;78939.03;5020278;28;20029;-83
2023/01/24 04:41:20;;;;;;;11.32;5.20;;;;;;;-148.88;100.00;78941.06;5021008;28;20021;-83
2023/01/24 04:43:46;;;;;;;10.18;4.72;;;;;;;-148.88;100.00;78947.16;5037242;28;20097;-83
2023/01/24 04:46:11;;;;;;;11.25;5.53;;;;;;;-148.88;100.00;78943.09;5035490;28;20026;-84
2023/01/24 04:48:36;;;;;;;12.50;5.07;;;;;;;-148.88;100.00;78941.06;5021881;28;20060;-82
2023/01/24 04:51:02;;;;;;;11.13;4.55;;;;;;;-148.88;100.00;78943.09;4982953;28;1141880;-82
2023/01/24 04:53:29;;;;;;;8.60;4.47;;;;;;;-148.88;100.00;78947.16;5023048;28;20061;-81
2023/01/24 04:55:59;;;;;;;10.63;4.97;;;;;;;-148.88;100.00;78945.13;5022368;28;20552;-82
2023/01/24 04:58:24;;;;;;;9.93;4.82;;;;;;;-148.88;100.00;78943.09;5021316;28;20028;-82
2023/01/24 05:00:49;;;;;;;11.90;5.35;;;;;;;-148.88;100.00;78943.09;5021886;28;20018;-81
2023/01/24 05:03:14;;;;;;;11.95;5.18;;;;;;;-148.88;100.00;78947.16;5037200;28;20037;-81
2023/01/24 05:05:40;;;;;;;13.20;4.93;;;;;;;-148.88;100.00;78951.25;5020899;28;20032;-82
2023/01/24 05:08:05;;;;;;;13.60;4.97;;;;;;;-148.88;100.00;78957.34;5022246;28;20030;-82
2023/01/24 05:10:30;;;;;;;10.52;5.15;;;;;;;-148.88;100.00;78951.25;5019840;28;20022;-83
2023/01/24 05:12:56;;;;;;;9.82;4.72;;;;;;;-148.88;100.00;78963.44;5022223;28;20065;-83
2023/01/24 05:15:22;;;;;;;13.38;5.18;;;;;;;-148.88;100.00;78971.56;5037391;28;20021;-83
2023/01/24 05:17:48;;;;;;;9.88;4.85;;;;;;;-148.88;100.00;78971.56;5037496;28;20381;-81
2023/01/24 05:20:13;;;;;;;9.68;4.45;;;;;;;-148.88;100.00;78975.63;5016286;28;20491;-82
2023/01/24 05:22:39;;;;;;;10.60;4.55;;;;;;;-148.88;100.00;78973.59;5017359;28;20022;-82
2023/01/24 05:25:04;;;;;;;12.10;5.18;;;;;;;-148.88;100.00;78973.59;5017047;28;20036;-80
2023/01/24 05:27:30;;;;;;;10.32;3.85;;;;;;;-148.88;100.00;78971.56;5025409;28;20029;-81
2023/01/24 05:29:55;;;;;;;11.35;4.53;;;;;;;-148.88;100.00;78975.63;5036598;28;20473;-84
2023/01/24 05:32:20;;;;;;;14.07;4.75;;;;;;;-148.88;100.00;78975.63;5018511;28;20030;-83
2023/01/24 05:34:45;;;;;;;11.07;5.22;;;;;;;-148.88;100.00;78975.63;5021125;28;20034;-82
2023/01/24 05:37:11;;;;;;;11.63;4.75;;;;;;;-148.88;100.00;78979.69;5024669;28;20073;-82
2023/01/24 05:39:36;;;;;;;11.40;4.60;;;;;;;-148.88;100.00;78975.63;5021240;28;20068;-81
2023/01/24 05:42:01;;;;;;;10.07;4.40;;;;;;;-148.88;100.00;78975.63;5034725;28;20121;-82
2023/01/24 05:44:27;;;;;;;9.23;4.70;;;;;;;-148.88;100.00;78983.75;5019331;28;20057;-84
2023/01/24 05:46:52;;;;;;;12.30;4.85;;;;;;;-148.88;100.00;78979.69;5016139;28;20061;-80
2023/01/24 05:49:17;;;;;;;12.60;4.93;;;;;;;-148.88;100.00;78979.69;5014705;28;20120;-80
2023/01/24 05:51:42;;;;;;;10.00;4.88;;;;;;;-148.88;100.00;78975.63;5015810;28;20030;-81
2023/01/24 05:54:08;;;;;;;11.90;4.97;;;;;;;-148.88;100.00;78989.88;5015719;28;20099;-81
2023/01/24 05:56:33;;;;;;;12.35;6.00;;;;;;;-148.88;100.00;78989.88;5016075;28;20026;-81
2023/01/24 05:59:01;;;;;;;11.45;5.45;;;;;;;-148.88;100.00;78991.91;5018141;28;20018;-80
2023/01/24 06:01:26;;;;;;;10.70;5.07;;;;;;;-148.88;100.00;79000.03;5032732;28;20026;-83
2023/01/24 06:03:52;;;;;;;12.35;5.85;;;;;;;-148.88;100.00;79006.13;5033272;28;20056;-81
2023/01/24 06:06:21;;;;;;;13.25;5.63;;;;;;;-148.88;100.00;79004.09;5033717;28;20060;-83
2023/01/24 06:08:46;;;;;;;11.27;5.60;;;;;;;-148.88;100.00;79000.03;5017267;28;20111;-80
2023/01/24 06:11:15;;;;;;;11.32;4.93;;;;;;;-148.88;100.00;79004.09;5017606;28;20033;-80
2023/01/24 06:13:41;;;;;;;11.35;5.53;;;;;;;-148.88;100.00;79008.16;5031906;28;20022;-84
2023/01/24 06:16:11;;;;;;;8.77;4.63;;;;;;;-148.88;100.00;79002.06;5032069;28;20018;-83
2023/01/24 06:18:37;;;;;;;9.55;5.15;;;;;;;-148.88;100.00;78991.91;5031865;28;20022;-82
2023/01/24 06:21:08;;;;;;;8.93;4.50;;;;;;;-148.88;100.00;79000.03;5016846;28;20025;-83
2023/01/24 06:23:34;;;;;;;12.57;4.55;;;;;;;-148.88;100.00;79010.19;5030424;28;20109;-82
2023/01/24 06:25:59;;;;;;;8.95;4.63;;;;;;;-148.88;100.00;79016.28;5030362;28;20109;-83
2023/01/24 06:28:25;;;;;;;11.70;4.82;;;;;;;-148.88;100.00;79008.16;5030321;28;20029;-82
2023/01/24 06:31:04;;;;;;;9.30;4.35;;;;;;;-148.88;100.00;79012.22;5013733;28;20112;-83
2023/01/24 06:33:48;;;;;;;9.88;4.50;;;;;;;-148.88;100.00;79010.19;5014411;28;20049;-82
2023/01/24 06:36:25;;;;;;;8.05;4.35;;;;;;;-148.88;100.00;79006.13;5015236;28;20132;-83
2023/01/24 06:38:51;;;;;;;9.95;4.20;;;;;;;-148.88;100.00;79008.16;5030992;28;20025;-83
2023/01/24 06:41:17;;;;;;;9.75;4.00;;;;;;;-148.88;100.00;79008.16;5014962;28;20087;-82
2023/01/24 06:43:43;;;;;;;8.30;4.43;;;;;;;-148.88;100.00;79012.22;5015695;28;20030;-82
2023/01/24 06:46:10;;;;;;;8.63;4.13;;;;;;;-148.88;100.00;79012.22;5017041;28;20025;-82
2023/01/24 06:48:35;;;;;;;10.00;3.80;;;;;;;-148.88;100.00;79012.22;5018575;28;20049;-82
2023/01/24 06:51:00;;;;;;;8.23;3.97;;;;;;;-148.88;100.00;79022.38;5014816;28;20057;-82
2023/01/24 06:53:26;;;;;;;10.13;4.32;;;;;;;-148.88;100.00;79026.44;5034318;28;20040;-83
2023/01/24 06:55:51;;;;;;;6.68;3.53;;;;;;;-148.88;100.00;79024.41;5019403;28;20022;-82
2023/01/24 06:58:16;;;;;;;8.73;3.72;;;;;;;-148.88;100.00;79018.31;5019289;28;20500;-82
2023/01/24 07:00:42;;;;;;;9.63;3.90;;;;;;;-148.88;100.00;79028.47;5013251;28;20024;-82
2023/01/24 07:03:07;;;;;;;9.85;4.70;;;;;;;-148.88;100.00;79028.47;5040917;28;20025;-83
2023/01/24 07:05:35;;;;;;;9.88;4.47;;;;;;;-148.88;100.00;79032.56;5043552;28;20052;-83
2023/01/24 07:08:01;;;;;;;9.02;4.80;;;;;;;-148.88;100.00;79032.56;5042726;28;20141;-83
2023/01/24 07:10:26;;;;;;;11.20;5.22;;;;;;;-148.88;100.00;79032.56;5025359;28;20126;-83
2023/01/24 07:12:52;;;;;;;7.90;3.75;;;;;;;-148.88;100.00;79032.56;5026179;28;20475;-83
2023/01/24 07:15:17;;;;;;;10.50;4.15;;;;;;;-148.88;100.00;79034.59;5041080;28;20030;-83
2023/01/24 07:17:43;;;;;;;9.80;4.70;;;;;;;-148.88;100.00;79038.66;5026232;28;20030;-82
2023/01/24 07:20:11;;;;;;;12.60;4.47;;;;;;;-148.88;100.00;79036.63;5022356;28;20088;-85
2023/01/24 07:22:37;;;;;;;9.55;4.65;;;;;;;-148.88;100.00;79036.63;5036318;28;20026;-84
2023/01/24 07:25:04;;;;;;;10.10;4.13;;;;;;;-148.88;100.00;79044.75;5039285;28;20504;-82
2023/01/24 07:27:30;;;;;;;10.43;4.65;;;;;;;-148.88;100.00;79044.75;5023078;28;20041;-84
2023/01/24 07:29:55;;;;;;;7.93;4.43;;;;;;;-148.88;100.00;79048.81;5024854;28;20021;-83
2023/01/24 07:32:21;;;;;;;12.50;5.07;;;;;;;-148.88;100.00;79040.69;5045307;28;20370;-84
2023/01/24 07:34:46;;;;;;;8.32;4.32;;;;;;;-148.88;100.00;79042.72;5027062;28;20030;-84
2023/01/24 07:37:11;;;;;;;9.35;4.25;;;;;;;-148.88;100.00;79038.66;5029889;28;20123;-81
2023/01/24 07:39:36;;;;;;;11.07;4.97;;;;;;;-148.88;100.00;79050.84;5013110;28;20022;-82
2023/01/24 07:42:02;;;;;;;7.22;3.97;;;;;;;-148.88;100.00;79042.72;5014089;28;20098;-83
2023/01/24 07:44:27;;;;;;;10.23;4.75;;;;;;;-148.88;100.00;79054.91;5018144;28;20060;-83
2023/01/24 07:46:53;;;;;;;9.02;4.13;;;;;;;-148.88;100.00;79040.69;5020675;28;20032;-83
2023/01/24 07:49:18;;;;;;;11.00;4.45;;;;;;;-148.88;100.00;79048.81;5036615;28;20083;-83
2023/01/24 07:51:45;;;;;;;8.35;4.40;;;;;;;-148.88;100.00;79056.94;5022954;28;20109;-84
2023/01/24 07:54:11;;;;;;;8.30;3.80;;;;;;;-148.88;100.00;79048.81;5020796;28;20074;-84
2023/01/24 07:56:36;;;;;;;8.82;3.97;;;;;;;-148.88;100.00;79052.88;5036232;28;20108;-84
2023/01/24 07:59:01;;;;;;;8.20;3.60;;;;;;;-148.88;100.00;79048.81;5037069;28;20547;-84
2023/01/24 08:01:26;;;;;;;7.45;3.70;;;;;;;-148.88;100.00;79056.94;5035896;28;20025;-83
2023/01/24 08:03:57;;;;;;;8.95;4.20;;;;;;;-148.88;100.00;79061.00;5019018;28;20084;-83
2023/01/24 08:06:22;;;;;;;6.50;3.50;;;;;;;-148.88;100.00;79058.97;5035372;28;20022;-84
2023/01/24 08:08:48;;;;;;;7.45;4.03;;;;;;;-148.88;100.00;79058.97;5033762;28;20021;-83
2023/01/24 08:11:15;;;;;;;9.45;4.05;;;;;;;-148.88;100.00;79061.00;5018911;28;20102;-83
2023/01/24 08:13:41;;;;;;;8.95;4.32;;;;;;;-148.88;100.00;79061.00;5029068;28;20117;-83
2023/01/24 08:16:07;;;;;;;7.28;3.45;;;;;;;-148.88;100.00;79065.06;5011853;28;20061;-83
2023/01/24 08:18:32;;;;;;;7.47;3.53;;;;;;;-148.88;100.00;79065.06;5029261;28;20018;-83
2023/01/24 08:20:57;;;;;;;6.75;3.55;;;;;;;-148.88;100.00;79073.22;5028647;28;20512;-83
2023/01/24 08:23:23;;;;;;;7.07;3.67;;;;;;;-148.88;100.00;79077.28;5014887;28;20096;-83
2023/01/24 08:25:48;;;;;;;7.65;3.50;;;;;;;-148.88;100.00;79069.16;5013824;28;20033;-83
2023/01/24 08:28:13;;;;;;;8.80;3.22;;;;;;;-148.88;100.00;79077.28;5013898;28;20456;-83
2023/01/24 08:30:39;;;;;;;6.50;3.15;;;;;;;-148.88;100.00;79073.22;5012197;28;20118;-83
2023/01/24 08:33:05;;;;;;;6.05;2.97;;;;;;;-148.88;100.00;79085.41;5014002;28;20109;-83
2023/01/24 08:35:32;;;;;;;7.00;3.10;;;;;;;-148.88;100.00;79081.34;5033196;28;20095;-83
2023/01/24 08:37:58;;;;;;;5.78;2.67;;;;;;;-148.88;100.00;79077.28;5032507;28;20117;-84
2023/01/24 08:40:23;;;;;;;6.50;3.10;;;;;;;-148.88;100.00;79077.28;5032444;28;20028;-84
2023/01/24 08:42:49;;;;;;;7.13;3.08;;;;;;;-148.88;100.00;79075.25;5032488;28;20030;-84
2023/01/24 08:45:14;;;;;;;8.32;3.05;;;;;;;-148.88;100.00;79065.06;5032287;28;20041;-83
2023/01/24 08:47:39;;;;;;;6.32;2.95;;;;;;;-148.88;100.00;79069.16;5032948;28;20060;-83
2023/01/24 08:50:05;;;;;;;4.88;2.88;;;;;;;-148.88;100.00;79077.28;5014290;28;20026;-83
2023/01/24 08:52:31;;;;;;;5.38;2.88;;;;;;;-148.88;100.00;79065.06;5011550;28;20392;-83
2023/01/24 08:54:56;;;;;;;7.20;3.30;;;;;;;-148.88;100.00;79081.34;5028064;28;20120;-83
2023/01/24 08:57:21;;;;;;;7.80;3.25;;;;;;;-148.88;100.00;79077.28;5023607;28;20029;-84
2023/01/24 08:59:47;;;;;;;7.55;2.97;;;;;;;-148.88;100.00;79075.25;5041147;28;20032;-84
2023/01/24 09:02:14;;;;;;;5.65;2.85;;;;;;;-148.88;100.00;79075.25;5038972;28;20030;-84
2023/01/24 09:04:42;;;;;;;5.68;2.80;;;;;;;-148.88;100.00;79075.25;5021644;28;20032;-84
2023/01/24 09:07:07;;;;;;;7.15;3.40;;;;;;;-148.88;100.00;79075.25;5021980;28;20057;-84
2023/01/24 09:09:32;;;;;;;5.32;2.70;;;;;;;-148.88;100.00;79071.19;5024373;28;20025;-84
2023/01/24 09:11:58;;;;;;;5.65;2.90;;;;;;;-148.88;100.00;79085.41;5023075;28;20036;-84
2023/01/24 09:14:23;;;;;;;6.45;3.03;;;;;;;-148.88;100.00;79081.34;5023288;28;20076;-84
2023/01/24 09:16:48;;;;;;;5.93;3.25;;;;;;;-148.88;100.00;79079.31;5023824;28;20049;-84
2023/01/24 09:19:14;;;;;;;4.90;2.72;;;;;;;-148.88;100.00;79081.34;5023485;28;20080;-84
2023/01/24 09:21:39;;;;;;;7.45;3.10;;;;;;;-148.88;100.00;79077.28;5023634;28;20391;-84
2023/01/24 09:24:05;;;;;;;6.32;3.05;;;;;;;-148.88;100.00;79071.19;5022831;28;20021;-83
2023/01/24 09:26:30;;;;;;;4.95;2.95;;;;;;;-148.88;100.00;79071.19;5018094;28;20029;-83
2023/01/24 09:28:56;;;;;;;5.75;2.72;;;;;;;-148.88;100.00;79073.22;5025889;28;20026;-84
2023/01/24 09:31:21;;;;;;;5.88;2.95;;;;;;;-148.88;100.00;79073.22;5024477;28;20057;-84
2023/01/24 09:33:46;;;;;;;5.35;3.08;;;;;;;-148.88;100.00;79069.16;5039149;28;20404;-84
2023/01/24 09:36:12;;;;;;;5.40;2.75;;;;;;;-148.88;100.00;79071.19;5039176;28;20029;-84
2023/01/24 09:38:37;;;;;;;5.45;2.60;;;;;;;-148.88;100.00;79073.22;5021668;28;20117;-84
2023/01/24 09:41:05;;;;;;;5.78;2.90;;;;;;;-148.88;100.00;79079.31;5023534;28;20041;-83
2023/01/24 09:43:42;;;;;;;5.50;2.78;;;;;;;-148.88;100.00;79077.28;5037893;28;20034;-84
2023/01/24 09:46:16;;;;;;;5.75;3.13;;;;;;;-148.88;100.00;79077.28;5022459;28;20037;-84
2023/01/24 09:48:42;;;;;;;6.20;2.78;;;;;;;-148.88;100.00;79083.38;5022687;28;20030;-83
2023/01/24 09:51:24;;;;;;;4.78;2.63;;;;;;;-148.88;100.00;79085.41;5036803;28;20041;-83
2023/01/24 09:53:59;;;;;;;6.32;2.83;;;;;;;-148.88;100.00;79083.38;5037181;28;20461;-84
2023/01/24 09:56:31;;;;;;;7.47;3.28;;;;;;;-148.88;100.00;79081.34;5021791;28;20033;-83
2023/01/24 09:59:12;;;;;;;6.72;2.58;;;;;;;-148.88;100.00;79065.06;5038893;28;20026;-83
2023/01/24 10:01:40;;;;;;;6.93;2.80;;;;;;;-148.88;100.00;79065.06;5038631;28;20385;-83
2023/01/24 10:04:13;;;;;;;6.93;3.35;;;;;;;-148.88;100.00;79065.06;5016378;28;20025;-83
2023/01/24 10:06:39;;;;;;;7.05;3.13;;;;;;;-148.88;100.00;79056.94;5032341;28;20083;-83
2023/01/24 10:09:18;;;;;;;6.53;3.00;;;;;;;-148.88;100.00;79056.94;5018414;28;20038;-83
2023/01/24 10:12:07;;;;;;;6.32;2.97;;;;;;;-148.88;100.00;79063.03;5033570;28;20057;-83
2023/01/24 10:14:48;;;;;;;5.82;2.70;;;;;;;-148.88;100.00;79063.03;5017695;28;20022;-83
2023/01/24 10:17:32;;;;;;;6.88;3.47;;;;;;;-148.88;100.00;79069.16;5036870;28;20405;-83
2023/01/24 10:20:01;;;;;;;;;;;;;;;-148.88;100.00;79056.94;5035723;28;20026;-83
2023/01/24 10:22:55;;;;;;;5.75;3.83;;;;;;;-148.88;100.00;79052.88;5021064;28;20372;-83
2023/01/24 10:25:26;;;;;;;6.97;3.45;;;;;;;-148.88;100.00;79040.69;5036258;28;20508;-84
2023/01/24 10:27:57;;;;;;;6.88;3.47;;;;;;;-148.88;100.00;79048.81;5021196;28;20030;-84
2023/01/24 10:30:33;;;;;;;4.70;2.47;;;;;;;-148.88;100.00;79058.97;5020098;28;20515;-83
2023/01/24 10:33:03;;;;;;;5.43;2.70;;;;;;;-148.88;100.00;79058.97;5021673;28;20560;-83
2023/01/24 10:35:36;;;;;;;3.85;2.30;;;;;;;-148.88;100.00;79052.88;5036857;28;20047;-83
2023/01/24 10:38:07;;;;;;;4.95;2.60;;;;;;;-148.88;100.00;79044.75;5021389;28;20043;-83
2023/01/24 10:40:32;;;;;;;6.72;3.00;;;;;;;-148.88;100.00;79036.63;5031778;28;20054;-82
2023/01/24 10:43:07;;;;;;;5.20;2.50;;;;;;;-148.88;100.00;79034.59;5029956;28;20060;-83
2023/01/24 10:45:51;;;;;;;6.10;3.20;;;;;;;-148.88;100.00;79032.56;5029975;28;20440;-83
2023/01/24 10:48:27;;;;;;;;;;;;;;;-148.88;100.00;79032.56;5030887;28;20075;-82
2023/01/24 10:50:52;;;;;;;6.60;2.97;;;;;;;-148.88;100.00;79032.56;5023617;28;19925;-84
2023/01/24 10:53:26;;;;;;;5.40;2.78;;;;;;;-148.88;100.00;79038.66;5023912;28;20022;-84
2023/01/24 10:56:00;;;;;;;4.65;2.80;;;;;;;-148.88;100.00;79028.47;5038847;28;20025;-84
2023/01/24 10:58:38;;;;;;;6.10;3.13;;;;;;;-148.88;100.00;79028.47;5038894;28;20037;-84
2023/01/24 11:01:21;;;;;;;4.55;2.60;;;;;;;-148.88;100.00;79028.47;5038118;28;20014;-84
2023/01/24 11:03:49;;;;;;;5.28;2.58;;;;;;;-148.88;100.00;79016.28;5037378;28;20053;-84
2023/01/24 11:06:35;;;;;;;6.18;2.95;;;;;;;-148.88;100.00;79022.38;5022503;28;20078;-84
2023/01/24 11:09:12;;;;;;;6.03;2.78;;;;;;;-148.88;100.00;79012.22;5036669;28;20025;-84
2023/01/24 11:11:45;;;;;;;6.47;3.47;;;;;;;-148.88;100.00;79024.41;5020322;28;20049;-84
2023/01/24 11:14:13;;;;;;;;;;;;;;;-148.88;100.00;79016.28;5021295;28;20388;-83
2023/01/24 11:16:47;;;;;;;5.47;2.70;;;;;;;-148.88;100.00;79014.25;5032950;28;19909;-83
2023/01/24 11:19:33;;;;;;;6.10;3.00;;;;;;;-148.88;100.00;79000.03;5014161;28;20076;-83
2023/01/24 11:22:02;;;;;;;7.00;3.08;;;;;;;-148.88;100.00;79010.19;5012741;28;20018;-83
2023/01/24 11:24:29;;;;;;;5.47;2.80;;;;;;;-148.88;100.00;79004.09;5020543;28;20025;-84
2023/01/24 11:27:02;;;;;;;5.68;3.22;;;;;;;-148.88;100.00;79012.22;5024052;28;20034;-84
2023/01/24 11:29:27;;;;;;;5.22;2.83;;;;;;;-148.88;100.00;79004.09;5022539;28;20022;-84
2023/01/24 11:32:25;;;;;;;5.07;2.65;;;;;;;-148.88;100.00;78998.00;5020632;28;20074;-84
2023/01/24 11:35:03;;;;;;;4.53;2.58;;;;;;;-148.88;100.00;78995.97;5019636;28;20038;-84
2023/01/24 11:37:57;;;;;;;4.90;2.80;;;;;;;-148.88;100.00;78991.91;5037273;28;20507;-84
2023/01/24 11:40:29;;;;;;;6.72;3.75;;;;;;;-148.88;100.00;78998.00;5022711;28;20022;-84
2023/01/24 11:43:25;;;;;;;5.22;3.00;;;;;;;-148.88;100.00;78983.75;5021297;28;20018;-83
2023/01/24 11:46:21;;;;;;;5.55;3.30;;;;;;;-148.88;100.00;78971.56;5037507;28;20164;-83
2023/01/24 11:48:58;;;;;;;5.82;3.13;;;;;;;-148.88;100.00;78973.59;5037600;28;20034;-83
2023/01/24 11:51:46;;;;;;;6.07;3.47;;;;;;;-148.88;100.00;78975.63;5037140;28;20062;-83
2023/01/24 11:54:34;;;;;;;6.18;3.25;;;;;;;-148.88;100.00;78979.69;5030993;28;20029;-83